createdAt,value
2023-05-01T04:55:20.081Z,16.05
2023-05-01T05:00:23.897Z,15.55
2023-05-01T05:05:27.512Z,14.93
2023-05-01T05:10:32.528Z,14.77
2023-05-01T05:15:35.942Z,14.40
2023-05-01T05:20:40.571Z,16.63
2023-05-01T05:25:45.430Z,18.10
2023-05-01T05:30:49.206Z,16.33
2023-05-01T05:35:53.322Z,14.45
2023-05-01T05:40:59.463Z,14.75
2023-05-01T05:46:03.182Z,16.10
2023-05-01T05:51:06.856Z,17.20
2023-05-01T05:56:11.713Z,15.90
2023-05-01T06:01:15.129Z,13.80
2023-05-01T06:06:19.208Z,11.82
2023-05-01T06:11:24.190Z,12.45
2023-05-01T06:16:28.006Z,10.23
2023-05-01T06:21:32.304Z,8.65
2023-05-01T06:26:37.393Z,8.77
2023-05-01T06:31:41.035Z,8.73
2023-05-01T06:36:44.779Z,9.27
2023-05-01T06:41:49.552Z,8.75
2023-05-01T06:46:53.250Z,9.57
2023-05-01T06:51:56.950Z,9.10
2023-05-01T06:57:01.811Z,8.10
2023-05-01T07:02:05.205Z,8.13
2023-05-01T07:07:08.714Z,8.68
2023-05-01T07:12:13.533Z,7.35
2023-05-01T07:17:17.408Z,7.43
2023-05-01T07:22:20.844Z,7.57
2023-05-01T07:27:26.097Z,7.72
2023-05-01T07:32:31.380Z,8.00
2023-05-01T07:37:34.973Z,7.70
2023-05-01T07:42:40.304Z,7.47
2023-05-01T07:47:43.810Z,6.82
2023-05-01T07:52:47.382Z,6.95
2023-05-01T07:57:52.194Z,6.78
2023-05-01T08:02:55.771Z,5.00
2023-05-01T08:07:59.434Z,4.75
2023-05-01T08:13:04.493Z,5.05
2023-05-01T08:18:08.000Z,5.32
2023-05-01T08:23:11.555Z,4.25
2023-05-01T08:28:16.599Z,4.13
2023-05-01T08:33:20.350Z,4.25
2023-05-01T08:38:24.038Z,4.53
2023-05-01T08:43:30.888Z,4.35
2023-05-01T08:48:37.842Z,6.28
2023-05-01T08:53:43.223Z,6.15
2023-05-01T08:58:51.092Z,5.45
2023-05-01T09:03:55.895Z,5.72
2023-05-01T09:08:59.858Z,5.55
2023-05-01T09:14:05.541Z,5.13
2023-05-01T09:19:09.073Z,5.00
2023-05-01T09:24:12.911Z,5.30
2023-05-01T09:29:39.198Z,4.60
2023-05-01T09:34:43.660Z,5.80
2023-05-01T09:39:47.161Z,5.35
2023-05-01T09:44:52.238Z,5.22
2023-05-01T09:49:59.719Z,5.57
2023-05-01T09:55:17.046Z,5.55
2023-05-01T10:00:23.614Z,6.90
2023-05-01T10:05:27.247Z,5.10
2023-05-01T10:10:31.223Z,5.82
2023-05-01T10:15:39.105Z,5.38
2023-05-01T10:20:42.894Z,5.88
2023-05-01T10:25:48.556Z,6.43
2023-05-01T10:30:54.940Z,5.07
2023-05-01T10:36:00.857Z,5.70
2023-05-01T10:41:06.299Z,6.00
2023-05-01T10:46:29.884Z,5.90
2023-05-01T10:51:33.428Z,5.63
2023-05-01T10:56:44.284Z,4.97
2023-05-01T11:01:51.959Z,5.20
2023-05-01T11:07:18.927Z,5.03
2023-05-01T11:12:52.213Z,4.70
2023-05-01T11:17:57.561Z,5.53
2023-05-01T11:23:01.124Z,5.75
2023-05-01T11:28:06.718Z,5.20
2023-05-01T11:33:11.719Z,5.10
2023-05-01T11:38:19.749Z,5.07
2023-05-01T11:43:23.534Z,4.60
2023-05-01T11:48:29.577Z,4.18
2023-05-01T11:53:33.033Z,4.50
2023-05-01T11:58:37.072Z,4.50
2023-05-01T12:03:45.392Z,4.25
2023-05-01T12:08:51.780Z,3.58
2023-05-01T12:13:55.891Z,3.90
2023-05-01T12:19:01.029Z,4.13
2023-05-01T12:24:09.639Z,3.72
2023-05-01T12:29:13.805Z,3.65
2023-05-01T12:34:18.975Z,4.07
2023-05-01T12:39:23.577Z,4.38
2023-05-01T12:44:30.773Z,5.20
2023-05-01T12:49:37.407Z,4.93
2023-05-01T12:54:44.568Z,4.30
2023-05-01T12:59:49.549Z,4.53
2023-05-01T13:05:06.334Z,4.80
2023-05-01T13:10:10.666Z,4.32
2023-05-01T13:15:21.605Z,5.05
2023-05-01T13:20:28.659Z,4.60
2023-05-01T13:25:32.496Z,3.75
2023-05-01T13:30:36.811Z,5.07
2023-05-01T13:35:41.743Z,4.55
2023-05-01T13:40:45.563Z,4.38
2023-05-01T13:45:49.088Z,4.80
2023-05-01T13:50:54.364Z,5.05
2023-05-01T13:55:57.851Z,4.22
2023-05-01T14:01:01.476Z,3.88
2023-05-01T14:06:07.206Z,3.60
2023-05-01T14:11:12.630Z,3.40
2023-05-01T14:16:25.098Z,4.28
2023-05-01T14:21:30.232Z,3.63
2023-05-01T14:26:35.275Z,3.15
2023-05-01T14:31:40.656Z,3.33
2023-05-01T14:36:45.590Z,2.47
2023-05-01T14:41:49.259Z,2.35
2023-05-01T14:46:53.591Z,2.55
2023-05-01T14:51:58.710Z,2.72
2023-05-01T14:57:06.294Z,2.15
2023-05-01T15:02:09.972Z,2.25
2023-05-01T15:07:15.239Z,2.22
2023-05-01T15:12:20.548Z,2.10
2023-05-01T15:17:24.370Z,2.30
2023-05-01T15:22:29.360Z,2.20
2023-05-01T15:27:32.845Z,2.17
2023-05-01T15:32:36.483Z,1.80
2023-05-01T15:37:41.668Z,2.35
2023-05-01T15:42:45.566Z,2.00
2023-05-01T15:47:49.288Z,2.08
2023-05-01T15:52:54.439Z,2.80
2023-05-01T15:57:57.914Z,2.33
2023-05-01T16:03:03.158Z,1.88
2023-05-01T16:08:08.510Z,2.70
2023-05-01T16:13:12.048Z,1.75
2023-05-01T16:18:20.901Z,2.10
2023-05-01T16:23:26.504Z,2.10
2023-05-01T16:28:30.089Z,2.08
2023-05-01T16:33:35.793Z,2.03
2023-05-01T16:38:40.576Z,2.13
2023-05-01T16:43:44.143Z,2.15
2023-05-01T16:48:47.847Z,1.88
2023-05-01T16:53:52.701Z,2.25
2023-05-01T16:58:56.379Z,5.38
2023-05-01T17:03:59.852Z,2.25
2023-05-01T17:09:04.924Z,2.63
2023-05-01T17:14:08.347Z,2.72
2023-05-01T17:19:12.605Z,4.10
2023-05-01T17:24:17.647Z,3.53
2023-05-01T17:29:21.112Z,3.17
2023-05-01T17:34:24.789Z,3.78
2023-05-01T17:39:29.571Z,3.80
2023-05-01T17:44:33.715Z,3.72
2023-05-01T17:49:37.266Z,3.22
2023-05-01T17:54:42.280Z,3.55
2023-05-01T17:59:45.935Z,3.45
2023-05-01T18:04:50.308Z,3.50
2023-05-01T18:09:55.369Z,3.65
2023-05-01T18:15:01.706Z,4.03
2023-05-01T18:20:06.387Z,4.05
2023-05-01T18:25:11.470Z,4.18
2023-05-01T18:30:15.309Z,4.15
2023-05-01T18:35:19.191Z,4.22
2023-05-01T18:40:24.543Z,4.68
2023-05-01T18:45:28.097Z,4.95
2023-05-01T18:50:31.917Z,5.57
2023-05-01T18:55:36.730Z,6.10
2023-05-01T19:00:40.547Z,5.13
2023-05-01T19:05:44.043Z,5.13
2023-05-01T19:10:48.861Z,4.75
2023-05-01T19:15:53.522Z,5.65
2023-05-01T19:20:57.587Z,6.10
2023-05-01T19:26:02.432Z,7.20
2023-05-01T19:31:07.687Z,6.90
2023-05-01T19:36:11.242Z,7.85
2023-05-01T19:41:16.069Z,7.15
2023-05-01T19:46:19.815Z,5.90
2023-05-01T19:51:23.526Z,6.93
2023-05-01T19:56:28.597Z,5.55
2023-05-01T20:01:32.508Z,5.22
2023-05-01T20:06:36.013Z,5.47
2023-05-01T20:11:41.021Z,3.70
2023-05-01T20:16:44.755Z,4.97
2023-05-01T20:21:49.211Z,4.28
2023-05-01T20:26:55.839Z,4.03
2023-05-01T20:32:00.383Z,4.75
2023-05-01T20:37:04.036Z,4.68
2023-05-01T20:42:08.828Z,3.88
2023-05-01T20:47:13.704Z,4.03
2023-05-01T20:52:17.196Z,4.25
2023-05-01T20:57:22.311Z,4.47
2023-05-01T21:02:25.825Z,4.25
2023-05-01T21:07:30.557Z,4.70
2023-05-01T21:12:35.356Z,5.03
2023-05-01T21:17:41.320Z,4.78
2023-05-01T21:22:46.275Z,4.60
2023-05-01T21:27:51.716Z,4.65
2023-05-01T21:32:55.933Z,5.07
2023-05-01T21:37:59.642Z,5.25
2023-05-01T21:43:06.173Z,6.03
2023-05-01T21:48:10.125Z,6.00
2023-05-01T21:53:13.613Z,5.32
2023-05-01T21:58:18.722Z,6.03
2023-05-01T22:03:24.907Z,5.97
2023-05-01T22:08:28.434Z,5.10
2023-05-01T22:13:34.276Z,5.68
2023-05-01T22:18:37.688Z,5.97
2023-05-01T22:23:41.480Z,5.40
2023-05-01T22:28:46.387Z,5.50
